createdAt,value
2023-02-14T00:03:36.830Z,12.05
2023-02-14T00:08:44.315Z,11.05
2023-02-14T00:14:02.060Z,11.73
2023-02-14T00:19:05.594Z,12.23
2023-02-14T00:24:12.517Z,11.70
2023-02-14T00:29:17.796Z,11.05
2023-02-14T00:34:22.212Z,13.02
2023-02-14T00:39:26.997Z,11.43
2023-02-14T00:44:30.637Z,11.32
2023-02-14T00:49:34.202Z,11.20
2023-02-14T00:54:39.023Z,11.52
2023-02-14T00:59:42.389Z,12.05
2023-02-14T01:04:45.860Z,11.45
2023-02-14T01:09:50.577Z,11.05
2023-02-14T01:14:54.135Z,11.73
2023-02-14T01:19:57.677Z,12.45
2023-02-14T01:25:02.637Z,10.70
2023-02-14T01:30:08.290Z,12.70
2023-02-14T01:35:12.349Z,11.52
2023-02-14T01:40:17.308Z,11.63
2023-02-14T01:45:24.811Z,11.68
2023-02-14T01:50:33.743Z,12.10
2023-02-14T01:55:42.327Z,10.52
2023-02-14T02:00:58.633Z,11.50
2023-02-14T02:06:10.392Z,11.38
2023-02-14T02:11:15.436Z,10.10
2023-02-14T02:16:46.449Z,10.43
2023-02-14T02:22:18.998Z,11.40
2023-02-14T02:27:47.308Z,10.40
2023-02-14T02:33:21.642Z,10.63
2023-02-14T02:43:50.352Z,9.40
2023-02-14T02:48:59.521Z,9.75
2023-02-14T02:54:10.761Z,9.27
2023-02-14T02:59:20.625Z,9.65
2023-02-14T03:04:42.327Z,10.60
2023-02-14T03:09:56.770Z,10.20
2023-02-14T03:15:09.527Z,10.88
2023-02-14T03:20:17.799Z,10.23
2023-02-14T03:25:35.627Z,10.20
2023-02-14T03:30:47.219Z,9.63
2023-02-14T03:36:02.288Z,10.52
2023-02-14T03:41:10.332Z,11.10
2023-02-14T03:46:19.203Z,9.65
2023-02-14T03:51:24.622Z,10.25
2023-02-14T03:56:37.972Z,11.23
2023-02-14T04:06:49.355Z,9.90
2023-02-14T04:11:54.086Z,9.77
2023-02-14T04:17:15.128Z,9.32
2023-02-14T04:22:18.916Z,9.38
2023-02-14T04:27:23.637Z,10.70
2023-02-14T04:32:27.115Z,9.50
2023-02-14T04:37:31.006Z,9.88
2023-02-14T04:42:36.119Z,9.70
2023-02-14T04:47:40.075Z,10.10
2023-02-14T04:52:43.457Z,9.32
2023-02-14T04:57:48.304Z,9.68
2023-02-14T05:02:51.736Z,9.82
2023-02-14T05:07:55.157Z,10.82
2023-02-14T05:12:59.884Z,9.45
2023-02-14T05:18:05.630Z,10.30
2023-02-14T05:23:13.727Z,10.00
2023-02-14T05:28:19.337Z,10.02
2023-02-14T05:33:22.714Z,10.32
2023-02-14T05:38:26.315Z,10.40
2023-02-14T05:43:31.354Z,11.38
2023-02-14T05:48:35.224Z,11.98
2023-02-14T05:53:38.868Z,12.25
2023-02-14T05:58:43.953Z,14.15
2023-02-14T06:03:47.355Z,12.20
2023-02-14T06:08:50.754Z,12.02
2023-02-14T06:13:55.803Z,11.57
2023-02-14T06:18:59.193Z,12.02
2023-02-14T06:24:02.664Z,11.88
2023-02-14T06:29:07.734Z,12.45
2023-02-14T06:34:11.800Z,10.98
2023-02-14T06:39:15.603Z,11.05
2023-02-14T06:44:20.778Z,12.30
2023-02-14T06:49:24.630Z,10.80
2023-02-14T06:54:28.096Z,10.57
2023-02-14T06:59:32.831Z,10.05
2023-02-14T07:04:36.154Z,11.32
2023-02-14T07:09:39.625Z,9.85
2023-02-14T07:14:44.362Z,10.60
2023-02-14T07:19:50.171Z,10.32
2023-02-14T07:24:53.549Z,11.77
2023-02-14T07:29:58.310Z,10.68
2023-02-14T07:35:01.747Z,11.20
2023-02-14T07:40:14.039Z,11.63
2023-02-14T07:45:21.894Z,10.55
2023-02-14T07:50:25.760Z,10.57
2023-02-14T07:55:29.289Z,10.95
2023-02-14T08:00:34.289Z,13.25
2023-02-14T08:05:37.661Z,11.18
2023-02-14T08:10:41.042Z,10.77
2023-02-14T08:16:03.369Z,10.95
2023-02-14T08:21:08.429Z,12.00
2023-02-14T08:26:11.764Z,11.23
2023-02-14T08:31:34.452Z,11.73
2023-02-14T08:36:38.374Z,11.68
2023-02-14T08:41:42.095Z,11.50
2023-02-14T08:46:46.922Z,10.48
2023-02-14T08:51:50.388Z,11.02
2023-02-14T08:56:54.077Z,12.05
2023-02-14T09:01:58.899Z,10.30
2023-02-14T09:07:04.549Z,10.00
2023-02-14T09:12:10.505Z,9.80
2023-02-14T09:17:16.193Z,10.23
2023-02-14T09:22:21.234Z,9.77
2023-02-14T09:27:24.720Z,10.05
2023-02-14T09:32:30.161Z,10.75
2023-02-14T09:37:51.185Z,10.18
2023-02-14T09:43:04.069Z,12.18
2023-02-14T09:48:15.748Z,11.63
2023-02-14T09:53:26.616Z,11.00
2023-02-14T09:58:35.327Z,11.02
2023-02-14T10:04:17.179Z,10.32
2023-02-14T10:09:38.825Z,9.65
2023-02-14T10:14:42.400Z,10.88
2023-02-14T10:19:50.584Z,9.38
2023-02-14T10:25:01.230Z,9.45
2023-02-14T10:30:14.230Z,9.35
2023-02-14T10:35:30.906Z,8.20
2023-02-14T10:40:50.282Z,9.70
2023-02-14T10:46:01.916Z,8.70
2023-02-14T10:51:16.191Z,8.88
2023-02-14T10:56:25.085Z,11.65
2023-02-14T11:01:30.085Z,9.10
2023-02-14T11:06:35.219Z,9.23
2023-02-14T11:11:42.290Z,9.60
2023-02-14T11:16:45.763Z,8.45
2023-02-14T11:21:51.763Z,8.00
2023-02-14T11:26:58.344Z,8.25
2023-02-14T11:32:10.347Z,7.50
2023-02-14T11:37:27.911Z,7.10
2023-02-14T11:42:39.513Z,6.85
2023-02-14T11:47:43.033Z,7.30
2023-02-14T11:52:52.610Z,7.55
2023-02-14T11:57:57.864Z,6.75
2023-02-14T12:03:05.641Z,6.65
2023-02-14T12:08:11.080Z,6.45
2023-02-14T12:13:26.167Z,6.65
2023-02-14T12:18:45.070Z,5.75
2023-02-14T12:23:59.800Z,5.70
2023-02-14T12:29:13.951Z,6.07
2023-02-14T12:34:19.860Z,5.57
2023-02-14T12:39:36.755Z,5.75
2023-02-14T12:44:46.863Z,6.07
2023-02-14T12:50:16.743Z,4.97
2023-02-14T12:55:35.476Z,4.85
2023-02-14T13:00:49.550Z,4.07
2023-02-14T13:06:02.870Z,3.70
2023-02-14T13:16:23.695Z,5.05
2023-02-14T13:21:32.055Z,4.47
2023-02-14T13:26:41.256Z,5.82
2023-02-14T13:31:45.264Z,6.45
2023-02-14T13:36:49.452Z,5.85
2023-02-14T13:41:54.165Z,5.18
2023-02-14T13:46:57.637Z,4.95
2023-02-14T13:52:03.915Z,6.82
2023-02-14T13:57:29.757Z,5.43
2023-02-14T14:02:44.361Z,6.05
2023-02-14T14:07:48.042Z,5.93
2023-02-14T14:12:53.097Z,5.28
2023-02-14T14:18:29.093Z,5.85
2023-02-14T14:23:37.146Z,6.15
2023-02-14T14:28:47.161Z,6.32
2023-02-14T14:33:59.870Z,5.63
2023-02-14T14:39:03.228Z,5.82
2023-02-14T14:44:09.086Z,5.85
2023-02-14T14:49:14.174Z,6.60
2023-02-14T14:54:21.665Z,6.43
2023-02-14T14:59:34.631Z,6.15
2023-02-14T15:04:38.031Z,6.55
2023-02-14T15:09:43.267Z,5.68
2023-02-14T15:14:54.584Z,5.82
2023-02-14T15:20:04.449Z,5.50
2023-02-14T15:25:11.941Z,5.38
2023-02-14T15:30:26.527Z,5.80
2023-02-14T15:35:32.246Z,5.18
2023-02-14T15:40:38.796Z,5.90
2023-02-14T15:45:45.091Z,6.07
2023-02-14T15:50:52.557Z,5.97
2023-02-14T15:56:02.487Z,5.53
2023-02-14T16:01:08.297Z,6.05
2023-02-14T16:06:31.651Z,6.40
2023-02-14T16:11:37.364Z,6.95
2023-02-14T16:17:05.649Z,6.93
2023-02-14T16:22:10.782Z,6.60
2023-02-14T16:27:14.152Z,6.78
2023-02-14T16:32:22.654Z,6.55
2023-02-14T16:37:30.038Z,6.70
2023-02-14T16:42:35.576Z,7.70
2023-02-14T16:47:40.524Z,7.72
2023-02-14T16:52:46.604Z,7.15
2023-02-14T16:57:51.879Z,8.23
2023-02-14T17:03:04.462Z,9.25
2023-02-14T17:08:10.437Z,8.82
2023-02-14T17:13:14.071Z,7.65
2023-02-14T17:18:20.749Z,8.35
2023-02-14T17:23:24.468Z,13.02
2023-02-14T17:28:27.944Z,18.08
2023-02-14T17:33:34.542Z,13.85
2023-02-14T17:38:38.036Z,9.77
2023-02-14T17:43:41.594Z,8.68
2023-02-14T17:48:46.825Z,7.40
2023-02-14T17:53:50.725Z,10.90
2023-02-14T17:58:55.706Z,13.18
2023-02-14T18:04:00.539Z,12.52
2023-02-14T18:09:06.484Z,10.88
2023-02-14T18:14:10.239Z,9.35
2023-02-14T18:19:17.021Z,10.88
2023-02-14T18:24:20.913Z,10.43
2023-02-14T18:29:25.221Z,10.07
2023-02-14T18:34:30.246Z,11.40
2023-02-14T18:39:34.249Z,13.10
2023-02-14T18:44:37.710Z,11.43
2023-02-14T18:49:42.857Z,11.88
2023-02-14T18:54:46.360Z,12.98
2023-02-14T18:59:49.981Z,12.77
2023-02-14T19:04:54.729Z,13.27
2023-02-14T19:09:58.221Z,15.02
2023-02-14T19:15:01.993Z,15.65
2023-02-14T19:20:09.163Z,18.70
2023-02-14T19:25:12.610Z,17.90
2023-02-14T19:30:16.329Z,18.63
2023-02-14T19:35:21.388Z,17.27
2023-02-14T19:40:24.769Z,18.88
2023-02-14T19:45:32.518Z,17.85
2023-02-14T19:50:39.676Z,15.20
2023-02-14T19:55:43.417Z,19.30
2023-02-14T20:00:47.156Z,20.55
2023-02-14T20:05:52.672Z,21.48
2023-02-14T20:10:56.099Z,18.90
2023-02-14T20:15:59.777Z,16.52
2023-02-14T20:21:04.699Z,15.40
2023-02-14T20:26:13.223Z,15.02
2023-02-14T20:31:19.425Z,18.60
2023-02-14T20:36:24.843Z,18.02
2023-02-14T20:41:29.191Z,17.38
2023-02-14T20:46:32.902Z,18.05
2023-02-14T20:51:37.728Z,18.27
2023-02-14T20:56:41.843Z,19.50
2023-02-14T21:01:45.488Z,17.10
2023-02-14T21:06:50.446Z,17.55
2023-02-14T21:11:54.067Z,17.58
2023-02-14T21:16:57.598Z,18.48
2023-02-14T21:22:02.440Z,19.13
2023-02-14T21:27:06.215Z,18.05
2023-02-14T21:32:09.802Z,17.95
2023-02-14T21:37:14.760Z,18.20
2023-02-14T21:42:21.555Z,16.25
2023-02-14T21:47:25.549Z,15.63
2023-02-14T21:52:31.109Z,17.75
2023-02-14T21:57:34.504Z,16.10
2023-02-14T22:02:40.009Z,17.85
2023-02-14T22:07:44.869Z,18.83
2023-02-14T22:12:48.214Z,20.27
2023-02-14T22:17:51.599Z,18.15
2023-02-14T22:22:56.526Z,16.73
2023-02-14T22:28:00.234Z,13.95
2023-02-14T22:33:03.851Z,14.45
2023-02-14T22:38:08.646Z,13.68
2023-02-14T22:43:12.098Z,11.63
2023-02-14T22:48:31.273Z,13.00
2023-02-14T22:53:36.151Z,13.02
2023-02-14T22:58:39.654Z,13.07
2023-02-14T23:03:43.647Z,13.77
2023-02-14T23:08:49.373Z,13.57
2023-02-14T23:14:10.761Z,15.27
2023-02-14T23:19:33.421Z,17.45
2023-02-14T23:24:38.636Z,14.50
2023-02-14T23:29:42.128Z,14.48
2023-02-14T23:34:46.376Z,13.75
2023-02-14T23:39:51.356Z,13.43
2023-02-14T23:45:15.025Z,13.85
2023-02-14T23:50:18.980Z,13.15
2023-02-14T23:55:23.877Z,14.65
